createdAt,value
2022-08-28T00:00:22.978Z,0.70
2022-08-28T00:01:22.979Z,0.60
2022-08-28T00:02:23.028Z,0.70
2022-08-28T00:03:22.980Z,0.60
2022-08-28T00:04:22.998Z,0.70
2022-08-28T00:05:22.980Z,0.70
2022-08-28T00:06:22.980Z,0.60
2022-08-28T00:07:22.983Z,0.70
2022-08-28T00:08:22.981Z,0.70
2022-08-28T00:09:22.983Z,0.60
2022-08-28T00:10:22.981Z,0.70
2022-08-28T00:11:22.983Z,0.80
2022-08-28T00:12:22.983Z,0.60
2022-08-28T00:13:22.985Z,0.70
2022-08-28T00:14:22.984Z,0.70
2022-08-28T00:15:22.985Z,0.70
2022-08-28T00:16:23.072Z,0.70
2022-08-28T00:17:22.989Z,0.70
2022-08-28T00:18:22.986Z,0.80
2022-08-28T00:19:22.987Z,0.70
2022-08-28T00:20:22.988Z,0.70
2022-08-28T00:21:22.990Z,0.70
2022-08-28T00:22:22.988Z,0.70
2022-08-28T00:23:22.990Z,0.60
2022-08-28T00:24:22.989Z,0.70
2022-08-28T00:25:22.991Z,0.80
2022-08-28T00:26:22.990Z,0.70
2022-08-28T00:27:22.993Z,0.70
2022-08-28T00:28:24.144Z,0.70
2022-08-28T00:29:22.995Z,0.70
2022-08-28T00:30:22.992Z,0.80
2022-08-28T00:31:23.068Z,0.70
2022-08-28T00:32:22.995Z,0.60
2022-08-28T00:33:22.996Z,0.70
2022-08-28T00:34:33.028Z,0.60
2022-08-28T00:35:22.998Z,0.60
2022-08-28T00:36:22.996Z,0.60
2022-08-28T00:37:24.594Z,0.70
2022-08-28T00:38:22.999Z,0.80
2022-08-28T00:39:22.999Z,0.70
2022-08-28T00:40:28.833Z,0.70
2022-08-28T00:41:24.597Z,0.80
2022-08-28T00:42:23.001Z,0.70
2022-08-28T00:43:23.002Z,0.70
2022-08-28T00:44:23.001Z,0.70
2022-08-28T00:45:23.003Z,0.90
2022-08-28T00:46:23.077Z,0.60
2022-08-28T00:47:23.003Z,0.70
2022-08-28T00:48:23.004Z,0.70
2022-08-28T00:49:23.005Z,0.70
2022-08-28T00:50:23.003Z,0.70
2022-08-28T00:51:23.007Z,0.60
2022-08-28T00:52:23.005Z,0.60
2022-08-28T00:53:23.483Z,0.70
2022-08-28T00:54:23.006Z,0.70
2022-08-28T00:55:23.007Z,0.80
2022-08-28T00:56:23.008Z,0.70
2022-08-28T00:57:23.009Z,0.70
2022-08-28T00:58:23.007Z,0.80
2022-08-28T00:59:23.009Z,0.90
2022-08-28T01:00:23.010Z,0.60
2022-08-28T01:01:23.057Z,0.80
2022-08-28T01:02:23.023Z,0.70
2022-08-28T01:03:25.026Z,0.80
2022-08-28T01:04:23.012Z,0.60
2022-08-28T01:05:23.014Z,0.70
2022-08-28T01:06:23.015Z,0.60
2022-08-28T01:07:23.014Z,0.60
2022-08-28T01:08:23.112Z,0.70
2022-08-28T01:09:23.015Z,0.70
2022-08-28T01:10:23.015Z,0.70
2022-08-28T01:11:23.015Z,0.60
2022-08-28T01:12:23.017Z,0.70
2022-08-28T01:13:23.016Z,0.70
2022-08-28T01:14:23.021Z,0.70
2022-08-28T01:15:23.017Z,0.70
2022-08-28T01:16:23.113Z,0.70
2022-08-28T01:17:23.019Z,0.60
2022-08-28T01:18:23.020Z,0.80
2022-08-28T01:19:23.021Z,0.80
2022-08-28T01:20:23.023Z,0.60
2022-08-28T01:21:23.021Z,0.80
2022-08-28T01:22:23.023Z,0.70
2022-08-28T01:23:23.022Z,0.70
2022-08-28T01:24:23.024Z,0.70
2022-08-28T01:25:23.023Z,0.80
2022-08-28T01:26:23.025Z,0.60
2022-08-28T01:27:23.993Z,0.60
2022-08-28T01:28:23.028Z,0.80
2022-08-28T01:29:23.027Z,0.70
2022-08-28T01:30:23.026Z,0.70
2022-08-28T01:31:23.063Z,0.70
2022-08-28T01:32:23.029Z,0.70
2022-08-28T01:33:28.026Z,0.70
2022-08-28T01:34:23.029Z,0.60
2022-08-28T01:35:23.028Z,0.60
2022-08-28T01:36:23.031Z,0.60
2022-08-28T01:37:23.031Z,0.60
2022-08-28T01:38:26.726Z,0.60
2022-08-28T01:39:23.033Z,0.70
2022-08-28T01:40:23.160Z,0.80
2022-08-28T01:41:23.033Z,0.70
2022-08-28T01:42:23.034Z,0.60
2022-08-28T01:43:23.033Z,0.70
2022-08-28T01:44:23.035Z,0.70
2022-08-28T01:45:23.035Z,0.70
2022-08-28T01:46:23.135Z,0.60
2022-08-28T01:47:23.035Z,0.70
2022-08-28T01:48:23.039Z,0.80
2022-08-28T01:49:23.037Z,0.70
2022-08-28T01:50:23.037Z,0.70
2022-08-28T01:51:24.695Z,0.70
2022-08-28T01:52:26.546Z,0.70
2022-08-28T01:53:24.801Z,0.80
2022-08-28T01:54:23.191Z,0.70
2022-08-28T01:55:23.040Z,0.70
2022-08-28T01:56:23.041Z,0.70
2022-08-28T01:57:23.041Z,0.70
2022-08-28T01:58:23.045Z,0.60
2022-08-28T01:59:23.044Z,0.70
2022-08-28T02:00:23.046Z,0.70
2022-08-28T02:01:23.087Z,0.70
2022-08-28T02:02:23.046Z,0.70
2022-08-28T02:03:23.046Z,0.60
2022-08-28T02:04:31.682Z,0.70
2022-08-28T02:05:23.049Z,0.90
2022-08-28T02:06:23.046Z,0.70
2022-08-28T02:07:23.048Z,0.70
2022-08-28T02:08:23.049Z,0.70
2022-08-28T02:09:23.048Z,0.60
2022-08-28T02:10:23.049Z,0.60
2022-08-28T02:11:23.057Z,0.70
2022-08-28T02:12:23.052Z,0.70
2022-08-28T02:13:23.052Z,0.60
2022-08-28T02:14:23.053Z,0.70
2022-08-28T02:15:23.607Z,0.80
2022-08-28T02:16:23.066Z,0.70
2022-08-28T02:17:23.055Z,0.70
2022-08-28T02:18:23.054Z,0.70
2022-08-28T02:19:23.055Z,0.70
2022-08-28T02:20:23.057Z,0.60
2022-08-28T02:21:23.056Z,0.60
2022-08-28T02:22:23.058Z,0.70
2022-08-28T02:23:23.056Z,0.60
2022-08-28T02:24:23.061Z,0.70
2022-08-28T02:25:23.058Z,0.70
2022-08-28T02:26:23.060Z,0.60
2022-08-28T02:27:23.058Z,0.70
2022-08-28T02:28:23.060Z,0.60
2022-08-28T02:29:23.060Z,0.80
2022-08-28T02:30:23.063Z,0.80
2022-08-28T02:31:23.128Z,0.90
2022-08-28T02:32:23.064Z,0.60
2022-08-28T02:33:23.063Z,0.50
2022-08-28T02:34:23.063Z,0.60
2022-08-28T02:35:23.065Z,0.70
2022-08-28T02:36:23.068Z,0.70
2022-08-28T02:37:23.067Z,0.70
2022-08-28T02:38:23.066Z,0.60
2022-08-28T02:39:23.066Z,0.60
2022-08-28T02:40:23.112Z,0.60
2022-08-28T02:41:23.067Z,0.60
2022-08-28T02:42:23.068Z,0.80
2022-08-28T02:43:23.068Z,0.70
2022-08-28T02:44:23.069Z,0.70
2022-08-28T02:45:23.070Z,0.60
2022-08-28T02:46:23.126Z,0.60
2022-08-28T02:47:23.071Z,0.60
2022-08-28T02:48:23.071Z,0.60
2022-08-28T02:49:23.072Z,0.50
2022-08-28T02:50:23.072Z,0.60
2022-08-28T02:51:23.072Z,0.70
2022-08-28T02:52:23.075Z,0.70
2022-08-28T02:53:23.077Z,0.80
2022-08-28T02:54:23.075Z,0.50
2022-08-28T02:55:23.226Z,0.70
2022-08-28T02:56:23.077Z,0.70
2022-08-28T02:57:23.077Z,0.80
2022-08-28T02:58:23.078Z,0.70
2022-08-28T02:59:23.077Z,0.70
2022-08-28T03:00:23.080Z,0.60
2022-08-28T03:01:23.133Z,0.80
2022-08-28T03:02:23.150Z,0.70
2022-08-28T03:03:23.080Z,0.70
2022-08-28T03:04:23.081Z,0.60
2022-08-28T03:05:23.081Z,0.80
2022-08-28T03:06:23.085Z,0.60
2022-08-28T03:07:23.084Z,0.80
2022-08-28T03:08:23.085Z,0.60
2022-08-28T03:09:23.086Z,0.70
2022-08-28T03:10:23.086Z,0.60
2022-08-28T03:11:23.084Z,0.80
2022-08-28T03:12:23.086Z,0.70
2022-08-28T03:13:27.092Z,0.70
2022-08-28T03:14:23.087Z,0.60
2022-08-28T03:15:23.086Z,0.70
2022-08-28T03:16:23.117Z,0.70
2022-08-28T03:17:23.089Z,0.70
2022-08-28T03:18:23.090Z,0.70
2022-08-28T03:19:23.090Z,0.60
2022-08-28T03:20:23.090Z,0.70
2022-08-28T03:21:23.091Z,0.60
2022-08-28T03:22:23.091Z,0.60
2022-08-28T03:23:23.093Z,0.70
2022-08-28T03:24:23.094Z,0.70
2022-08-28T03:25:23.093Z,0.70
2022-08-28T03:26:23.096Z,0.70
2022-08-28T03:27:23.093Z,0.70
2022-08-28T03:28:23.095Z,0.60
2022-08-28T03:29:23.097Z,0.60
2022-08-28T03:30:23.095Z,0.70
2022-08-28T03:31:23.199Z,0.50
2022-08-28T03:32:23.098Z,0.80
2022-08-28T03:33:23.097Z,0.60
2022-08-28T03:34:23.099Z,0.60
2022-08-28T03:35:23.098Z,0.60
2022-08-28T03:36:23.100Z,0.60
2022-08-28T03:37:23.100Z,0.70
2022-08-28T03:38:23.101Z,0.50
2022-08-28T03:39:23.119Z,0.70
2022-08-28T03:40:23.188Z,0.60
2022-08-28T03:41:23.102Z,0.60
2022-08-28T03:42:23.107Z,0.50
2022-08-28T03:43:23.103Z,0.60
2022-08-28T03:44:23.106Z,0.70
2022-08-28T03:45:23.105Z,0.70
2022-08-28T03:46:23.182Z,0.70
2022-08-28T03:47:23.106Z,0.70
2022-08-28T03:48:23.106Z,0.60
2022-08-28T03:49:23.108Z,0.60
2022-08-28T03:50:23.108Z,0.70
2022-08-28T03:51:29.276Z,0.70
2022-08-28T03:52:23.109Z,0.70
2022-08-28T03:53:23.109Z,0.60
2022-08-28T03:54:23.111Z,0.60
2022-08-28T03:55:23.110Z,0.70
2022-08-28T03:56:23.119Z,0.70
2022-08-28T03:57:23.111Z,0.60
2022-08-28T03:58:23.112Z,0.70
2022-08-28T03:59:24.405Z,0.60
2022-08-28T04:00:23.115Z,0.80
2022-08-28T04:01:23.203Z,0.60
2022-08-28T04:02:23.114Z,0.60
2022-08-28T04:03:23.186Z,0.60
2022-08-28T04:04:23.117Z,0.50
2022-08-28T04:05:23.116Z,0.60
2022-08-28T04:06:23.117Z,0.60
2022-08-28T04:07:23.116Z,0.60
2022-08-28T04:08:23.122Z,0.60
2022-08-28T04:09:23.120Z,0.50
2022-08-28T04:10:23.120Z,0.60
2022-08-28T04:11:23.119Z,0.60
2022-08-28T04:12:23.122Z,0.40
2022-08-28T04:13:23.121Z,0.60
2022-08-28T04:14:23.121Z,0.50
2022-08-28T04:15:23.124Z,0.60
2022-08-28T04:16:23.148Z,0.60
2022-08-28T04:17:23.123Z,0.50
2022-08-28T04:18:23.124Z,0.50
2022-08-28T04:19:23.124Z,0.60
2022-08-28T04:20:23.126Z,0.50
2022-08-28T04:21:23.125Z,0.70
2022-08-28T04:22:23.687Z,0.60
2022-08-28T04:23:23.125Z,0.60
2022-08-28T04:24:23.128Z,0.60
2022-08-28T04:25:23.128Z,0.50
2022-08-28T04:26:23.129Z,0.60
2022-08-28T04:27:23.128Z,0.70
2022-08-28T04:28:23.129Z,0.70
2022-08-28T04:29:23.130Z,0.70
2022-08-28T04:30:23.131Z,0.50
2022-08-28T04:31:31.971Z,0.70
2022-08-28T04:32:23.134Z,0.60
2022-08-28T04:33:23.132Z,0.50
2022-08-28T04:34:23.132Z,0.60
2022-08-28T04:35:23.132Z,0.60
2022-08-28T04:36:23.137Z,0.50
2022-08-28T04:37:23.135Z,0.50
2022-08-28T04:38:23.135Z,0.60
2022-08-28T04:39:23.135Z,0.60
2022-08-28T04:40:23.188Z,0.60
2022-08-28T04:41:23.136Z,0.60
2022-08-28T04:42:23.137Z,0.70
2022-08-28T04:43:23.137Z,0.70
2022-08-28T04:44:23.139Z,0.60
2022-08-28T04:45:23.139Z,0.60
2022-08-28T04:46:23.139Z,0.50
2022-08-28T04:47:23.139Z,0.60
2022-08-28T04:48:23.141Z,0.60
2022-08-28T04:49:23.141Z,0.60
2022-08-28T04:50:23.145Z,0.50
2022-08-28T04:51:23.144Z,0.70
2022-08-28T04:52:23.144Z,0.60
2022-08-28T04:53:23.146Z,0.60
2022-08-28T04:54:23.145Z,0.60
2022-08-28T04:55:48.521Z,0.60
2022-08-28T04:56:23.147Z,0.60
2022-08-28T04:57:23.146Z,0.50
2022-08-28T04:58:23.943Z,0.70
2022-08-28T04:59:23.148Z,0.50
2022-08-28T05:00:23.148Z,0.70
2022-08-28T05:01:23.284Z,0.60
2022-08-28T05:02:23.250Z,0.50
2022-08-28T05:03:23.151Z,0.60
2022-08-28T05:04:23.151Z,0.50
2022-08-28T05:05:23.157Z,0.70
2022-08-28T05:06:23.152Z,0.50
2022-08-28T05:07:23.152Z,0.60
2022-08-28T05:08:23.163Z,0.60
2022-08-28T05:09:23.153Z,0.60
2022-08-28T05:10:23.154Z,0.50
2022-08-28T05:11:33.215Z,0.60
2022-08-28T05:12:23.154Z,0.70
2022-08-28T05:13:23.155Z,0.60
2022-08-28T05:14:23.160Z,0.60
2022-08-28T05:15:23.159Z,0.60
2022-08-28T05:16:23.206Z,0.60
2022-08-28T05:17:23.160Z,0.60
2022-08-28T05:18:23.159Z,0.60
2022-08-28T05:19:23.160Z,0.70
2022-08-28T05:20:23.159Z,0.50
2022-08-28T05:21:23.159Z,0.70
2022-08-28T05:22:23.160Z,0.60
2022-08-28T05:23:23.162Z,0.70
2022-08-28T05:24:23.160Z,0.60
2022-08-28T05:25:23.163Z,0.50
2022-08-28T05:26:23.161Z,0.70
2022-08-28T05:27:23.164Z,0.60
2022-08-28T05:28:23.164Z,0.50
2022-08-28T05:29:23.520Z,0.60
2022-08-28T05:30:23.165Z,0.50
2022-08-28T05:31:23.308Z,0.60
2022-08-28T05:32:23.166Z,0.60
2022-08-28T05:33:23.168Z,0.70
2022-08-28T05:34:23.168Z,0.60
2022-08-28T05:35:23.169Z,0.60
2022-08-28T05:36:23.169Z,0.60
2022-08-28T05:37:23.170Z,0.50
2022-08-28T05:38:23.170Z,0.60
2022-08-28T05:39:23.171Z,0.60
2022-08-28T05:40:23.254Z,0.60
2022-08-28T05:41:23.172Z,0.70
2022-08-28T05:42:23.171Z,0.70
2022-08-28T05:43:23.174Z,0.50
2022-08-28T05:44:23.173Z,0.60
2022-08-28T05:45:23.178Z,0.70
2022-08-28T05:46:23.218Z,0.70
2022-08-28T05:47:23.175Z,0.70
2022-08-28T05:48:23.177Z,0.60
2022-08-28T05:49:23.176Z,0.60
2022-08-28T05:50:23.176Z,0.70
2022-08-28T05:51:23.180Z,0.60
2022-08-28T05:52:23.177Z,0.80
2022-08-28T05:53:23.179Z,0.60
2022-08-28T05:54:23.179Z,0.60
2022-08-28T05:55:23.180Z,0.60
2022-08-28T05:56:23.181Z,0.80
2022-08-28T05:57:23.182Z,0.70
2022-08-28T05:58:23.181Z,0.70
2022-08-28T05:59:24.939Z,0.60
2022-08-28T06:00:23.182Z,0.70
2022-08-28T06:01:23.301Z,0.60
2022-08-28T06:02:23.297Z,0.60
2022-08-28T06:03:23.185Z,0.60
2022-08-28T06:04:23.247Z,0.60
2022-08-28T06:05:23.193Z,0.70
2022-08-28T06:06:23.194Z,0.70
2022-08-28T06:07:23.187Z,0.80
2022-08-28T06:08:23.191Z,0.70
2022-08-28T06:09:28.150Z,0.70
2022-08-28T06:10:23.189Z,0.60
2022-08-28T06:11:23.602Z,0.60
2022-08-28T06:12:23.189Z,0.70
2022-08-28T06:13:23.190Z,0.60
2022-08-28T06:14:23.190Z,0.70
2022-08-28T06:15:23.193Z,0.70
2022-08-28T06:16:23.231Z,0.80
2022-08-28T06:17:23.671Z,0.70
2022-08-28T06:18:23.193Z,0.60
2022-08-28T06:19:23.195Z,0.70
2022-08-28T06:20:23.193Z,0.70
2022-08-28T06:21:23.197Z,0.70
2022-08-28T06:22:23.194Z,0.80
2022-08-28T06:23:24.153Z,0.70
2022-08-28T06:24:23.197Z,0.60
2022-08-28T06:25:23.199Z,0.60
2022-08-28T06:26:23.198Z,0.50
2022-08-28T06:27:23.198Z,0.60
2022-08-28T06:28:23.201Z,0.80
2022-08-28T06:29:23.200Z,0.70
2022-08-28T06:30:23.200Z,0.70
2022-08-28T06:31:27.153Z,0.60
2022-08-28T06:32:23.290Z,0.60
2022-08-28T06:33:23.203Z,0.90
2022-08-28T06:34:23.201Z,0.50
2022-08-28T06:35:23.203Z,0.60
2022-08-28T06:36:23.203Z,0.60
2022-08-28T06:37:23.205Z,0.60
2022-08-28T06:38:23.204Z,0.70
2022-08-28T06:39:23.208Z,0.70
2022-08-28T06:40:23.266Z,0.60
2022-08-28T06:41:23.208Z,0.70
2022-08-28T06:42:23.209Z,0.80
2022-08-28T06:43:23.208Z,0.80
2022-08-28T06:44:23.207Z,0.80
2022-08-28T06:45:23.210Z,0.70
2022-08-28T06:46:23.260Z,0.60
2022-08-28T06:47:23.211Z,0.60
2022-08-28T06:48:23.209Z,0.80
2022-08-28T06:49:23.211Z,0.70
2022-08-28T06:50:23.210Z,0.70
2022-08-28T06:51:23.248Z,0.70
2022-08-28T06:52:23.214Z,0.70
2022-08-28T06:53:23.218Z,0.60
2022-08-28T06:54:23.713Z,0.70
2022-08-28T06:55:23.215Z,0.60
2022-08-28T06:56:25.984Z,0.70
2022-08-28T06:57:23.217Z,0.70
2022-08-28T06:58:23.216Z,0.60
2022-08-28T06:59:23.220Z,0.70
2022-08-28T07:00:23.217Z,0.60
2022-08-28T07:01:23.257Z,0.70
2022-08-28T07:02:23.323Z,0.90
2022-08-28T07:03:23.219Z,0.70
2022-08-28T07:04:23.220Z,0.70
2022-08-28T07:05:23.222Z,0.70
2022-08-28T07:06:23.219Z,0.70
2022-08-28T07:07:32.447Z,0.60
2022-08-28T07:08:23.222Z,0.70
2022-08-28T07:09:23.230Z,0.80
2022-08-28T07:10:23.222Z,0.80
2022-08-28T07:11:26.265Z,0.90
2022-08-28T07:12:23.224Z,0.60
2022-08-28T07:13:23.226Z,0.70
2022-08-28T07:14:23.223Z,0.60
2022-08-28T07:15:23.227Z,0.80
2022-08-28T07:16:23.368Z,0.70
2022-08-28T07:17:23.227Z,0.70
2022-08-28T07:18:23.227Z,0.60
2022-08-28T07:19:23.227Z,0.80
2022-08-28T07:20:23.229Z,0.80
2022-08-28T07:21:23.232Z,0.70
2022-08-28T07:22:23.228Z,0.70
2022-08-28T07:23:23.232Z,0.80
2022-08-28T07:24:23.231Z,0.90
2022-08-28T07:25:23.233Z,0.90
2022-08-28T07:26:23.232Z,0.80
2022-08-28T07:27:23.233Z,0.80
2022-08-28T07:28:23.232Z,0.70
2022-08-28T07:29:23.235Z,0.80
2022-08-28T07:30:23.234Z,1.00
2022-08-28T07:31:23.304Z,0.80
2022-08-28T07:32:23.234Z,0.70
2022-08-28T07:33:23.239Z,0.80
2022-08-28T07:34:26.969Z,0.70
2022-08-28T07:35:23.239Z,0.80
2022-08-28T07:36:29.559Z,0.80
2022-08-28T07:37:23.239Z,0.80
2022-08-28T07:38:23.239Z,0.80
2022-08-28T07:39:23.240Z,0.70
2022-08-28T07:40:23.293Z,0.70
2022-08-28T07:41:23.243Z,0.80
2022-08-28T07:42:23.243Z,0.80
2022-08-28T07:43:23.242Z,0.80
2022-08-28T07:44:23.243Z,0.80
2022-08-28T07:45:23.243Z,0.80
2022-08-28T07:46:23.360Z,0.70
2022-08-28T07:47:23.245Z,0.70
2022-08-28T07:48:23.244Z,0.80
2022-08-28T07:49:23.247Z,0.90
2022-08-28T07:50:23.244Z,0.70
2022-08-28T07:51:23.247Z,0.70
2022-08-28T07:52:23.247Z,0.80
2022-08-28T07:53:23.248Z,0.70
2022-08-28T07:54:23.247Z,0.90
2022-08-28T07:55:23.248Z,0.80
2022-08-28T07:56:23.249Z,0.70
2022-08-28T07:57:23.252Z,0.80
2022-08-28T07:58:23.249Z,0.80
2022-08-28T07:59:23.251Z,0.70
2022-08-28T08:00:23.252Z,0.80
2022-08-28T08:01:23.281Z,0.90
2022-08-28T08:02:23.257Z,0.80
2022-08-28T08:03:23.316Z,0.80
2022-08-28T08:04:23.252Z,0.80
2022-08-28T08:05:23.258Z,0.80
2022-08-28T08:06:23.257Z,0.70
2022-08-28T08:07:23.257Z,0.80
2022-08-28T08:08:23.257Z,0.60
2022-08-28T08:09:23.260Z,0.90
2022-08-28T08:10:23.257Z,0.80
2022-08-28T08:11:23.259Z,0.90
2022-08-28T08:12:23.259Z,0.90
2022-08-28T08:13:23.261Z,0.90
2022-08-28T08:14:23.259Z,0.80
2022-08-28T08:15:23.262Z,0.80
2022-08-28T08:16:23.328Z,1.00
2022-08-28T08:17:23.262Z,0.70
2022-08-28T08:18:23.339Z,0.80
2022-08-28T08:19:23.264Z,0.80
2022-08-28T08:20:23.263Z,0.80
2022-08-28T08:21:27.134Z,0.90
2022-08-28T08:22:23.265Z,0.80
2022-08-28T08:23:23.267Z,0.90
2022-08-28T08:24:23.266Z,0.90
2022-08-28T08:25:23.268Z,0.90
2022-08-28T08:26:23.264Z,0.90
2022-08-28T08:27:23.268Z,0.90
2022-08-28T08:28:23.268Z,0.80
2022-08-28T08:29:23.270Z,0.90
2022-08-28T08:30:23.272Z,0.80
2022-08-28T08:31:23.311Z,0.80
2022-08-28T08:32:23.271Z,0.80
2022-08-28T08:33:23.272Z,0.90
2022-08-28T08:34:23.270Z,0.80
2022-08-28T08:35:23.272Z,0.80
2022-08-28T08:36:23.273Z,1.00
2022-08-28T08:37:23.274Z,0.90
2022-08-28T08:38:23.273Z,1.00
2022-08-28T08:39:23.275Z,0.80
2022-08-28T08:40:23.298Z,0.70
2022-08-28T08:41:23.293Z,0.80
2022-08-28T08:42:23.275Z,0.80
2022-08-28T08:43:23.278Z,0.80
2022-08-28T08:44:23.277Z,0.80
2022-08-28T08:45:23.280Z,0.90
2022-08-28T08:46:23.348Z,0.80
2022-08-28T08:47:23.281Z,0.90
2022-08-28T08:48:23.279Z,1.00
2022-08-28T08:49:23.284Z,0.90
2022-08-28T08:50:23.280Z,0.80
2022-08-28T08:51:23.282Z,1.00
2022-08-28T08:52:23.281Z,0.90
2022-08-28T08:53:23.283Z,0.90
2022-08-28T08:54:23.284Z,1.00
2022-08-28T08:55:23.286Z,0.90
2022-08-28T08:56:23.284Z,0.90
2022-08-28T08:57:23.286Z,0.80
2022-08-28T08:58:23.286Z,0.80
2022-08-28T08:59:23.289Z,0.90
2022-08-28T09:00:23.286Z,0.80
2022-08-28T09:01:23.367Z,0.90
2022-08-28T09:02:23.286Z,0.80
2022-08-28T09:03:23.343Z,0.90
2022-08-28T09:04:23.288Z,0.80
2022-08-28T09:05:23.290Z,0.90
2022-08-28T09:06:23.289Z,1.00
2022-08-28T09:07:23.290Z,0.90
2022-08-28T09:08:23.291Z,0.90
2022-08-28T09:09:23.292Z,0.80
2022-08-28T09:10:23.292Z,0.80
2022-08-28T09:11:23.295Z,0.90
2022-08-28T09:12:23.294Z,0.90
2022-08-28T09:13:23.295Z,0.90
2022-08-28T09:14:29.690Z,0.80
2022-08-28T09:15:23.296Z,1.00
2022-08-28T09:16:23.331Z,0.80
2022-08-28T09:17:23.298Z,0.90
2022-08-28T09:18:23.296Z,0.80
2022-08-28T09:19:23.298Z,1.00
2022-08-28T09:20:32.540Z,0.80
2022-08-28T09:21:28.479Z,1.00
2022-08-28T09:22:23.298Z,0.90
2022-08-28T09:23:23.300Z,0.90
2022-08-28T09:24:23.318Z,1.00
2022-08-28T09:25:23.303Z,0.90
2022-08-28T09:26:23.300Z,0.90
2022-08-28T09:27:23.305Z,1.00
2022-08-28T09:28:23.303Z,0.80
2022-08-28T09:29:23.304Z,1.00
2022-08-28T09:30:23.304Z,0.80
2022-08-28T09:31:23.341Z,0.90
2022-08-28T09:32:23.304Z,0.90
2022-08-28T09:33:23.307Z,1.00
2022-08-28T09:34:23.305Z,0.90
2022-08-28T09:35:23.306Z,0.90
2022-08-28T09:36:23.306Z,0.90
2022-08-28T09:37:23.310Z,1.00
2022-08-28T09:38:23.310Z,1.00
2022-08-28T09:39:23.308Z,0.80
2022-08-28T09:40:23.408Z,1.00
2022-08-28T09:41:23.310Z,0.90
2022-08-28T09:42:23.313Z,1.00
2022-08-28T09:43:23.310Z,1.00
2022-08-28T09:44:23.312Z,1.00
2022-08-28T09:45:23.312Z,0.90
2022-08-28T09:46:23.330Z,1.00
2022-08-28T09:47:23.312Z,1.00
2022-08-28T09:48:23.317Z,1.00
2022-08-28T09:49:23.315Z,1.00
2022-08-28T09:50:23.315Z,0.90
2022-08-28T09:51:23.314Z,1.00
2022-08-28T09:52:25.373Z,1.00
2022-08-28T09:53:23.317Z,1.00
2022-08-28T09:54:23.317Z,1.00
2022-08-28T09:55:23.317Z,0.90
2022-08-28T09:56:23.319Z,1.00
2022-08-28T09:57:23.318Z,1.00
2022-08-28T09:58:23.320Z,1.00
2022-08-28T09:59:23.321Z,1.00
2022-08-28T10:00:23.321Z,1.00
2022-08-28T10:01:23.389Z,1.00
2022-08-28T10:02:23.322Z,1.00
2022-08-28T10:03:23.323Z,1.00
2022-08-28T10:04:23.387Z,1.00
2022-08-28T10:05:26.701Z,0.90
2022-08-28T10:06:23.324Z,0.80
2022-08-28T10:07:23.323Z,0.90
2022-08-28T10:08:23.325Z,1.10
2022-08-28T10:09:23.327Z,0.90
2022-08-28T10:10:23.327Z,1.00
2022-08-28T10:11:23.326Z,1.10
2022-08-28T10:12:23.329Z,1.00
2022-08-28T10:13:23.328Z,1.00
2022-08-28T10:14:23.329Z,1.10
2022-08-28T10:15:23.329Z,1.00
2022-08-28T10:16:23.401Z,0.90
2022-08-28T10:17:23.330Z,1.20
2022-08-28T10:18:23.331Z,1.10
2022-08-28T10:19:23.330Z,0.90
2022-08-28T10:20:23.333Z,1.10
2022-08-28T10:21:23.333Z,1.10
2022-08-28T10:22:23.333Z,1.20
2022-08-28T10:23:23.333Z,1.10
2022-08-28T10:24:26.849Z,1.00
2022-08-28T10:25:23.335Z,0.90
2022-08-28T10:26:23.337Z,1.00
2022-08-28T10:27:23.335Z,1.00
2022-08-28T10:28:23.337Z,1.00
2022-08-28T10:29:23.338Z,0.80
2022-08-28T10:30:23.357Z,1.00
2022-08-28T10:31:23.427Z,1.00
2022-08-28T10:32:23.339Z,1.00
2022-08-28T10:33:23.340Z,0.90
2022-08-28T10:34:23.340Z,1.10
2022-08-28T10:35:23.341Z,1.00
2022-08-28T10:36:33.854Z,0.80
2022-08-28T10:37:23.342Z,1.00
2022-08-28T10:38:23.342Z,1.00
2022-08-28T10:39:23.342Z,0.90
2022-08-28T10:40:23.399Z,1.10
2022-08-28T10:41:23.344Z,1.10
2022-08-28T10:42:23.344Z,1.00
2022-08-28T10:43:23.344Z,0.90
2022-08-28T10:44:23.345Z,1.00
2022-08-28T10:45:23.345Z,1.10
2022-08-28T10:46:27.050Z,1.00
2022-08-28T10:47:23.347Z,1.00
2022-08-28T10:48:23.348Z,1.00
2022-08-28T10:49:23.348Z,1.00
2022-08-28T10:50:23.349Z,1.00
2022-08-28T10:51:34.938Z,1.20
2022-08-28T10:52:23.351Z,1.00
2022-08-28T10:53:23.350Z,1.10
2022-08-28T10:54:23.351Z,1.00
2022-08-28T10:55:23.351Z,0.90
2022-08-28T10:56:23.363Z,1.10
2022-08-28T10:57:23.353Z,1.00
2022-08-28T10:58:24.285Z,1.10
2022-08-28T10:59:23.353Z,1.00
2022-08-28T11:00:23.355Z,1.30
2022-08-28T11:01:23.392Z,1.00
2022-08-28T11:02:23.378Z,1.10
2022-08-28T11:03:34.424Z,1.00
2022-08-28T11:04:25.373Z,1.00
2022-08-28T11:05:23.358Z,1.00
2022-08-28T11:06:23.358Z,1.10
2022-08-28T11:07:23.359Z,1.20
2022-08-28T11:08:23.360Z,1.00
2022-08-28T11:09:23.364Z,1.00
2022-08-28T11:10:23.360Z,1.20
2022-08-28T11:11:23.360Z,1.10
2022-08-28T11:12:23.364Z,1.00
2022-08-28T11:13:23.362Z,1.10
2022-08-28T11:14:23.362Z,1.00
2022-08-28T11:15:23.362Z,1.10
2022-08-28T11:16:23.436Z,1.10
2022-08-28T11:17:23.365Z,1.10
2022-08-28T11:18:25.249Z,1.00
2022-08-28T11:19:23.364Z,1.10
2022-08-28T11:20:23.366Z,1.10
2022-08-28T11:21:23.376Z,0.90
2022-08-28T11:22:23.368Z,0.90
2022-08-28T11:23:23.368Z,1.00
2022-08-28T11:24:23.369Z,1.00
2022-08-28T11:25:26.272Z,1.00
2022-08-28T11:26:23.370Z,1.20
2022-08-28T11:27:23.370Z,1.10
2022-08-28T11:28:23.372Z,1.00
2022-08-28T11:29:23.372Z,1.00
2022-08-28T11:30:23.372Z,1.10
2022-08-28T11:31:29.101Z,1.00
2022-08-28T11:32:23.373Z,1.00
2022-08-28T11:33:23.374Z,1.10
2022-08-28T11:34:23.375Z,1.00
2022-08-28T11:35:23.374Z,1.00
2022-08-28T11:36:23.377Z,0.90
2022-08-28T11:37:23.377Z,1.20
2022-08-28T11:38:23.377Z,1.20
2022-08-28T11:39:23.376Z,1.20
2022-08-28T11:40:23.507Z,1.20
2022-08-28T11:41:23.378Z,0.90
2022-08-28T11:42:23.380Z,1.10
2022-08-28T11:43:23.381Z,1.10
2022-08-28T11:44:23.382Z,1.00
2022-08-28T11:45:23.381Z,1.10
2022-08-28T11:46:24.066Z,1.00
2022-08-28T11:47:23.381Z,1.10
2022-08-28T11:48:23.397Z,1.00
2022-08-28T11:49:23.383Z,1.10
2022-08-28T11:50:23.384Z,1.10
2022-08-28T11:51:23.383Z,1.00
2022-08-28T11:52:23.387Z,1.00
2022-08-28T11:53:23.384Z,1.10
2022-08-28T11:54:23.387Z,0.90
2022-08-28T11:55:23.386Z,1.00
2022-08-28T11:56:30.565Z,0.90
2022-08-28T11:57:23.386Z,1.00
2022-08-28T11:58:23.387Z,1.00
2022-08-28T11:59:23.393Z,1.00
2022-08-28T12:00:23.390Z,1.00
2022-08-28T12:01:23.391Z,0.90
2022-08-28T12:02:23.417Z,1.00
2022-08-28T12:03:23.390Z,1.20
2022-08-28T12:04:23.440Z,1.00
2022-08-28T12:05:23.394Z,1.00
2022-08-28T12:06:23.393Z,1.10
2022-08-28T12:07:23.391Z,1.10
2022-08-28T12:08:23.395Z,1.00
2022-08-28T12:09:23.393Z,1.00
2022-08-28T12:10:23.395Z,1.10
2022-08-28T12:11:23.395Z,1.10
2022-08-28T12:12:23.397Z,1.10
2022-08-28T12:13:23.396Z,1.00
2022-08-28T12:14:23.397Z,1.00
2022-08-28T12:15:23.398Z,0.80
2022-08-28T12:16:23.454Z,1.10
2022-08-28T12:17:25.956Z,1.10
2022-08-28T12:18:23.400Z,1.20
2022-08-28T12:19:23.399Z,1.00
2022-08-28T12:20:23.403Z,1.20
2022-08-28T12:21:23.400Z,1.00
2022-08-28T12:22:23.401Z,1.00
2022-08-28T12:23:23.404Z,1.10
2022-08-28T12:24:23.403Z,1.10
2022-08-28T12:25:23.402Z,1.10
2022-08-28T12:26:23.404Z,1.10
2022-08-28T12:27:23.404Z,1.30
2022-08-28T12:28:23.405Z,1.00
2022-08-28T12:29:26.831Z,1.20
2022-08-28T12:30:23.406Z,1.00
2022-08-28T12:31:23.476Z,1.20
2022-08-28T12:32:23.409Z,1.10
2022-08-28T12:33:23.407Z,1.00
2022-08-28T12:34:23.410Z,1.10
2022-08-28T12:35:23.409Z,1.10
2022-08-28T12:36:23.411Z,1.00
2022-08-28T12:37:23.410Z,1.10
2022-08-28T12:38:23.413Z,1.20
2022-08-28T12:39:23.411Z,1.00
2022-08-28T12:40:23.520Z,1.00
2022-08-28T12:41:23.413Z,1.00
2022-08-28T12:42:23.413Z,1.10
2022-08-28T12:43:23.414Z,1.00
2022-08-28T12:44:23.416Z,1.00
2022-08-28T12:45:23.415Z,1.20
2022-08-28T12:46:23.438Z,1.10
2022-08-28T12:47:23.415Z,0.90
2022-08-28T12:48:23.419Z,1.00
2022-08-28T12:49:23.417Z,1.10
2022-08-28T12:50:23.417Z,0.90
2022-08-28T12:51:23.417Z,1.10
2022-08-28T12:52:23.420Z,1.00
2022-08-28T12:53:23.420Z,1.10
2022-08-28T12:54:23.420Z,1.20
2022-08-28T12:55:24.581Z,1.30
2022-08-28T12:56:23.421Z,1.10
2022-08-28T12:57:23.421Z,1.00
2022-08-28T12:58:23.424Z,1.20
2022-08-28T12:59:27.366Z,1.10
2022-08-28T13:00:23.424Z,1.10
2022-08-28T13:01:23.587Z,1.30
2022-08-28T13:02:23.603Z,1.00
2022-08-28T13:03:23.425Z,1.10
2022-08-28T13:04:23.427Z,1.30
2022-08-28T13:05:23.427Z,1.20
2022-08-28T13:06:23.427Z,1.00
2022-08-28T13:07:23.426Z,1.20
2022-08-28T13:08:23.429Z,1.10
2022-08-28T13:09:23.429Z,1.10
2022-08-28T13:10:23.428Z,1.00
2022-08-28T13:11:23.428Z,1.10
2022-08-28T13:12:23.431Z,1.00
2022-08-28T13:13:23.434Z,1.10
2022-08-28T13:14:23.432Z,1.00
2022-08-28T13:15:24.427Z,1.10
2022-08-28T13:16:23.474Z,1.20
2022-08-28T13:17:23.433Z,1.10
2022-08-28T13:18:23.434Z,1.00